Marthasville, MO

5:13 PM CDT on May 24, 2015 (GMT -0500)
Washington | | Change Station
CLOSE
Current Station
Airport
Location: Washington,
Elevation: 486 ft
Nearby Weather Stations
Active Advisory: Tornado Watch Active Notice: Public Information Statement

Elev 486 ft 38.59 °N, 90.99 °W | Updated 18 minutes ago

Mostly Cloudy
Mostly Cloudy
84 °F
Feels Like 85 °F
N
18
Wind Variable Wind from SSE
Gusts 23 mph

Today
High -- | Low -- °F
--% Chance of Precip.
Yesterday
High -- | Low -- °F
Precip. -- in
5:45 AM 8:16 PM
Waxing Crescent, 42% visible
Pressure 29.87 in
Visibility 10.0 miles
Clouds Scattered Clouds 6000 ft
Mostly Cloudy 7000 ft
Heat Index 85 °F
Dew Point 63 °F
Humidity 48%
Rainfall 0.00 in
Snow Depth Not available.
UV 2 out of 12
Pollen 6.60 out of 12
Air Quality Not available.
Flu Activity Sporadic
METAR KFYG 242155Z AUTO 16016G20KT 10SM SCT060 BKN070 29/17 A2987 RMK AO2

More Conditions Fewer Conditions

Pressure 29.87 in
Visibility 10.0 miles
Clouds Scattered Clouds 6000 ft
Mostly Cloudy 7000 ft
Heat Index 85 °F
Dew Point 63 °F
Humidity 48%
Rainfall 0.00 in
Snow Depth Not available.
UV 2 out of 12
Pollen 6.60 out of 12
Air Quality Not available.
Flu Activity Sporadic
METAR KFYG 242155Z AUTO 16016G20KT 10SM SCT060 BKN070 29/17 A2987 RMK AO2

More Conditions Fewer Conditions

10-Day Weather Forecast

Almanac

Astronomy

May. 24, 2015 Rise Set
Actual Time
Civil Twilight
Nautical Twilight
Astronomical Twilight
Moon
Length of Visible Light
Length of Day
Tomorrow will be .
, % of the Moon is Illuminated

Today's Extremes

State Highs State Lows

Community

WunderPhotos

Upload Photos

1,823,877 photos uploaded!

WunderBlogs® & News

Nearby

Air Quality

  Air Quality AQ Index Pollutant
Not available.

Snow Depth

Station Depth Elevation

Earthquake Activity

City Distance Mag. Time & Date
Minimum magnitude displayed is 2.5.

Coastal Water Temperatures

Place Temperature

Stations

Nearby Weather Stations

Station Location Temp. Windchill Dew Point Humidity Wind Precip. Elev Updated Type
                   
Tornado Watch
Statement as of 5:03 PM CDT on May 24, 2015

Tornado Watch 203 remains in effect until 800 PM CDT for the
following locations


MO
. Missouri counties included are

Audrain Benton Boone
Callaway Camden Christian
Cole Crawford Dallas
Dent Douglas Franklin
Gasconade Greene Hickory
Howell Iron Knox
Laclede Lewis Lincoln
Maries Marion Miller
Moniteau Monroe Montgomery
Morgan Oregon Osage
Ozark Phelps Pike
Polk Pulaski Ralls
Reynolds Shannon Shelby
stone Taney Texas
Warren Washington Webster
Wright